Time;durP1;ratioP1;P1;durP2;ratioP2;P2;SDS_P1;SDS_P2;PMS_P1;PMS_P2;Temp;Humidity;BMP_temperature;BMP_pressure;BME280_temperature;BME280_humidity;BME280_pressure;Samples;Min_cycle;Max_cycle;Signal;HPM_P1;HPM_P2
2021/12/18 00:01:25;;;;;;;26.77;7.05;;;7.50;99.90;;;;;;5092926;28;20048;-71
2021/12/18 00:03:51;;;;;;;27.23;7.05;;;7.50;99.90;;;;;;5109728;28;20086;-72
2021/12/18 00:06:17;;;;;;;46.90;8.38;;;7.50;99.90;;;;;;5126378;27;20413;-71
2021/12/18 00:08:43;;;;;;;18.38;6.55;;;7.40;99.90;;;;;;5092046;28;20039;-72
2021/12/18 00:11:10;;;;;;;20.27;5.95;;;7.40;99.90;;;;;;5092718;28;20481;-72
2021/12/18 00:13:36;;;;;;;21.13;6.40;;;7.40;99.90;;;;;;5076058;28;20393;-72
2021/12/18 00:16:02;;;;;;;20.23;5.22;;;7.40;99.90;;;;;;5109647;28;20484;-71
2021/12/18 00:18:28;;;;;;;13.77;4.60;;;7.40;99.90;;;;;;5091638;28;20132;-72
2021/12/18 00:20:54;;;;;;;16.27;5.10;;;7.40;99.90;;;;;;5092751;28;20135;-70
2021/12/18 00:23:19;;;;;;;18.60;5.13;;;7.30;99.90;;;;;;5091931;28;20040;-71
2021/12/18 00:25:45;;;;;;;16.08;4.95;;;7.30;99.90;;;;;;5076832;28;20047;-71
2021/12/18 00:28:11;;;;;;;17.92;5.53;;;7.30;99.90;;;;;;5092495;28;20453;-71
2021/12/18 00:30:38;;;;;;;19.15;6.00;;;7.30;99.90;;;;;;5092602;28;20074;-73
2021/12/18 00:33:05;;;;;;;21.35;6.22;;;7.30;99.90;;;;;;5092435;28;20126;-72
2021/12/18 00:35:33;;;;;;;49.20;7.30;;;7.30;99.90;;;;;;5091892;28;20040;-71
2021/12/18 00:38:09;;;;;;;46.72;7.15;;;7.30;99.90;;;;;;5091932;28;20036;-71
2021/12/18 00:41:10;;;;;;;31.45;6.53;;;7.30;99.90;;;;;;5096342;28;20040;-71
2021/12/18 00:44:01;;;;;;;24.33;5.60;;;7.20;99.90;;;;;;5095711;28;20059;-73
2021/12/18 00:46:24;;;;;;;16.58;5.18;;;7.30;99.90;;;;;;5095801;28;20048;-73
2021/12/18 00:48:50;;;;;;;22.98;4.78;;;7.20;99.90;;;;;;5080080;28;20119;-71
2021/12/18 00:51:15;;;;;;;15.00;4.32;;;7.30;99.90;;;;;;5079155;28;20118;-72
2021/12/18 00:53:41;;;;;;;16.90;3.90;;;7.20;99.90;;;;;;5078913;28;20089;-71
2021/12/18 00:56:07;;;;;;;22.73;3.75;;;7.20;99.90;;;;;;5096131;28;20036;-71
2021/12/18 00:58:32;;;;;;;26.05;3.90;;;7.20;99.90;;;;;;5079077;28;20036;-73
2021/12/18 01:00:58;;;;;;;25.20;3.88;;;7.10;99.90;;;;;;5078915;28;20044;-71
2021/12/18 01:03:24;;;;;;;9.32;3.38;;;7.10;99.90;;;;;;5096167;28;20381;-71
2021/12/18 01:05:49;;;;;;;16.77;3.55;;;7.20;99.90;;;;;;5129685;27;20067;-71
2021/12/18 01:08:16;;;;;;;15.80;3.30;;;7.20;99.90;;;;;;5129724;27;20040;-73
2021/12/18 01:13:12;;;;;;;17.90;3.70;;;7.10;99.90;;;;;;5095916;28;20051;-72
2021/12/18 01:15:44;;;;;;;23.17;4.00;;;7.10;99.90;;;;;;5094768;28;20055;-71
2021/12/18 01:23:38;;;;;;;16.58;3.03;;;7.10;99.90;;;;;;5095096;28;20078;-72
2021/12/18 01:26:04;;;;;;;14.00;2.97;;;7.10;99.90;;;;;;5078449;28;20039;-72
2021/12/18 01:28:31;;;;;;;7.93;2.55;;;7.10;99.90;;;;;;5078427;28;20096;-71
2021/12/18 01:30:57;;;;;;;15.40;2.90;;;7.10;99.90;;;;;;5096076;28;20051;-75
2021/12/18 01:33:23;;;;;;;12.57;3.08;;;7.10;99.90;;;;;;5095221;28;20039;-71
2021/12/18 01:35:49;;;;;;;11.73;2.65;;;7.10;99.90;;;;;;5095036;28;20157;-71
2021/12/18 01:38:15;;;;;;;9.75;2.80;;;7.10;99.90;;;;;;5095143;28;20042;-73
2021/12/18 01:40:42;;;;;;;19.08;3.60;;;7.10;99.90;;;;;;5095026;28;20042;-72
2021/12/18 01:51:22;;;;;;;8.63;2.40;;;7.10;99.90;;;;;;5073920;28;20136;-72
2021/12/18 01:53:51;;;;;;;8.63;2.92;;;7.00;99.90;;;;;;5113874;27;20047;-72
2021/12/18 01:56:19;;;;;;;10.70;2.90;;;7.00;99.90;;;;;;5095575;28;20096;-71
2021/12/18 01:58:45;;;;;;;8.57;2.40;;;7.00;99.90;;;;;;5094634;28;20044;-71
2021/12/18 02:01:12;;;;;;;18.63;3.22;;;6.90;99.90;;;;;;5094825;28;20097;-71
2021/12/18 02:03:38;;;;;;;13.93;3.28;;;7.00;99.90;;;;;;5094240;28;20135;-71
2021/12/18 02:06:04;;;;;;;15.10;3.25;;;7.00;99.90;;;;;;5095156;28;20079;-72
2021/12/18 02:08:33;;;;;;;13.40;2.83;;;7.00;99.90;;;;;;5095037;28;20079;-72
2021/12/18 02:11:12;;;;;;;6.82;2.63;;;6.90;99.90;;;;;;5094316;28;20466;-71
2021/12/18 02:21:53;;;;;;;11.82;2.88;;;6.90;99.90;;;;;;5094690;28;20537;-73
2021/12/18 02:24:22;;;;;;;14.77;3.20;;;6.90;99.90;;;;;;5094403;28;20123;-73
2021/12/18 02:26:47;;;;;;;15.40;3.22;;;6.80;99.90;;;;;;5094517;28;20040;-71
2021/12/18 02:29:15;;;;;;;16.08;3.10;;;6.90;99.90;;;;;;5077818;28;20039;-71
2021/12/18 02:31:42;;;;;;;10.40;2.70;;;6.90;99.90;;;;;;5094512;28;20050;-71
2021/12/18 02:34:15;;;;;;;14.20;3.28;;;6.90;99.90;;;;;;5094014;28;20474;-71
2021/12/18 02:36:47;;;;;;;13.02;3.25;;;6.80;99.90;;;;;;5094193;28;20071;-71
2021/12/18 02:44:47;;;;;;;10.75;2.10;;;6.80;99.90;;;;;;5060503;28;20113;-73
2021/12/18 02:47:13;;;;;;;8.48;1.95;;;6.80;99.90;;;;;;5093001;28;20126;-74
2021/12/18 02:49:50;;;;;;;20.27;2.80;;;6.80;99.90;;;;;;5093685;28;20067;-71
2021/12/18 02:52:19;;;;;;;12.15;2.10;;;6.70;99.90;;;;;;5094157;28;20032;-71
2021/12/18 02:54:45;;;;;;;11.75;2.10;;;6.70;99.90;;;;;;5094017;28;20078;-71
2021/12/18 02:57:12;;;;;;;8.73;1.83;;;6.70;99.90;;;;;;5093451;28;20440;-71
2021/12/18 02:59:57;;;;;;;8.18;1.70;;;6.70;99.90;;;;;;5093241;28;20032;-70
2021/12/18 03:02:24;;;;;;;6.65;1.48;;;6.60;99.90;;;;;;5092967;28;20443;-71
2021/12/18 03:04:56;;;;;;;7.05;2.00;;;6.60;99.90;;;;;;5076818;28;20044;-71
2021/12/18 03:07:24;;;;;;;6.25;1.90;;;6.60;99.90;;;;;;5092971;28;20040;-71
2021/12/18 03:25:59;;;;;;;18.90;2.40;;;6.70;99.90;;;;;;5077745;28;20044;-71
2021/12/18 03:28:27;;;;;;;9.18;2.05;;;6.60;99.90;;;;;;5093528;28;20036;-71
2021/12/18 03:30:55;;;;;;;13.23;2.10;;;6.60;99.90;;;;;;5093183;28;20108;-71
2021/12/18 03:33:21;;;;;;;19.48;2.30;;;6.60;99.90;;;;;;5092867;28;20044;-71
2021/12/18 03:35:47;;;;;;;9.57;2.05;;;6.60;99.90;;;;;;5092775;28;20047;-71
2021/12/18 03:38:13;;;;;;;8.73;2.15;;;6.70;99.90;;;;;;5092966;28;20036;-71
2021/12/18 03:40:38;;;;;;;11.48;2.15;;;6.60;99.90;;;;;;5093449;28;20445;-71
2021/12/18 03:43:04;;;;;;;10.95;1.80;;;6.60;99.90;;;;;;5127199;27;20105;-72
2021/12/18 03:45:30;;;;;;;12.38;1.70;;;6.60;99.90;;;;;;5126666;27;20042;-74
2021/12/18 03:47:56;;;;;;;9.40;1.70;;;6.60;99.90;;;;;;5092483;28;20043;-74
2021/12/18 03:50:21;;;;;;;4.45;1.30;;;6.60;99.90;;;;;;5076789;28;20036;-71
2021/12/18 03:52:48;;;;;;;7.85;1.58;;;6.60;99.90;;;;;;5075982;28;20044;-71
2021/12/18 03:55:15;;;;;;;6.45;1.55;;;6.50;99.90;;;;;;5092608;28;20047;-71
2021/12/18 03:57:41;;;;;;;6.13;1.27;;;6.50;99.90;;;;;;5075882;28;20040;-71
2021/12/18 04:00:09;;;;;;;7.70;1.42;;;6.50;99.90;;;;;;5092640;28;20044;-69
2021/12/18 04:02:35;;;;;;;4.35;1.50;;;6.40;99.90;;;;;;5092014;28;20048;-71
2021/12/18 04:05:01;;;;;;;7.35;1.77;;;6.40;99.90;;;;;;5110350;28;20048;-71
2021/12/18 04:07:26;;;;;;;4.75;1.35;;;6.40;99.90;;;;;;5075886;28;20359;-71
2021/12/18 04:09:52;;;;;;;4.60;1.38;;;6.40;99.90;;;;;;5126652;27;20040;-71
2021/12/18 04:12:17;;;;;;;4.03;1.13;;;6.40;99.90;;;;;;5125971;27;20046;-73
2021/12/18 04:14:43;;;;;;;3.30;1.02;;;6.30;99.90;;;;;;5126383;27;20041;-72
2021/12/18 04:17:09;;;;;;;4.85;1.13;;;6.30;99.90;;;;;;5125977;27;20072;-73
2021/12/18 04:19:35;;;;;;;7.60;1.50;;;6.30;99.90;;;;;;5075104;28;20420;-73
2021/12/18 04:22:00;;;;;;;5.75;1.45;;;6.30;99.90;;;;;;5075678;28;20047;-70
2021/12/18 04:24:26;;;;;;;4.85;1.45;;;6.30;99.90;;;;;;5092548;28;20035;-74
2021/12/18 04:26:52;;;;;;;10.35;1.83;;;6.30;99.90;;;;;;5092724;28;20049;-74
2021/12/18 04:29:18;;;;;;;4.93;1.25;;;6.30;99.90;;;;;;5091948;28;20036;-71
2021/12/18 04:31:43;;;;;;;7.63;1.40;;;6.30;99.90;;;;;;5126272;28;20090;-74
2021/12/18 04:34:09;;;;;;;6.32;1.45;;;6.30;99.90;;;;;;5126477;27;20043;-71
2021/12/18 04:36:35;;;;;;;7.18;1.38;;;6.20;99.90;;;;;;5092174;28;20050;-71
2021/12/18 04:39:01;;;;;;;12.15;1.50;;;6.20;99.90;;;;;;5091576;28;20040;-71
2021/12/18 04:41:43;;;;;;;8.63;1.50;;;6.20;99.90;;;;;;5092101;28;20421;-71
2021/12/18 04:44:09;;;;;;;4.93;1.02;;;6.30;99.90;;;;;;5092101;28;20091;-71
2021/12/18 04:46:35;;;;;;;22.55;1.90;;;6.30;99.90;;;;;;5125653;28;20068;-72
2021/12/18 04:49:01;;;;;;;31.55;2.22;;;6.30;99.90;;;;;;5092289;28;20428;-71
2021/12/18 04:51:27;;;;;;;27.92;2.22;;;6.20;99.90;;;;;;5092305;28;20446;-71
2021/12/18 04:53:53;;;;;;;8.57;1.98;;;6.30;99.90;;;;;;5092117;28;20115;-71
2021/12/18 04:56:18;;;;;;;9.70;1.80;;;6.30;99.90;;;;;;5091941;28;20494;-71
2021/12/18 04:58:44;;;;;;;8.48;1.17;;;6.30;99.90;;;;;;5074393;28;20048;-72
2021/12/18 05:01:10;;;;;;;6.95;1.38;;;6.20;99.90;;;;;;5092273;28;20074;-71
2021/12/18 05:03:38;;;;;;;11.23;1.05;;;6.20;99.90;;;;;;5091951;28;20040;-71
2021/12/18 05:06:04;;;;;;;7.60;1.05;;;6.20;99.90;;;;;;5091812;28;20066;-72
2021/12/18 05:08:29;;;;;;;7.90;1.50;;;6.20;99.90;;;;;;5126433;28;20355;-71
2021/12/18 05:10:55;;;;;;;4.60;1.10;;;6.10;99.90;;;;;;5126173;28;20123;-72
2021/12/18 05:13:21;;;;;;;7.13;1.63;;;6.20;99.90;;;;;;5125452;27;20126;-73
2021/12/18 05:15:47;;;;;;;9.23;1.60;;;6.20;99.90;;;;;;5108261;28;20635;-71
2021/12/18 05:18:12;;;;;;;9.10;1.38;;;6.10;99.90;;;;;;5091686;28;20395;-71
2021/12/18 05:20:38;;;;;;;6.70;1.20;;;6.10;99.90;;;;;;5091743;28;20051;-70
2021/12/18 05:23:04;;;;;;;5.72;1.48;;;6.10;99.90;;;;;;5092237;28;20040;-71
2021/12/18 05:25:30;;;;;;;8.05;1.50;;;6.10;99.90;;;;;;5092732;28;20047;-71
2021/12/18 05:27:55;;;;;;;10.23;1.30;;;6.10;99.90;;;;;;5074980;28;20475;-71
2021/12/18 05:30:21;;;;;;;14.50;1.50;;;6.10;99.90;;;;;;5075016;28;20094;-72
2021/12/18 05:32:47;;;;;;;6.72;1.40;;;6.10;99.90;;;;;;5075481;28;20040;-71
2021/12/18 05:35:15;;;;;;;6.78;1.52;;;6.10;99.90;;;;;;5087092;28;20050;-71
2021/12/18 05:40:12;;;;;;;14.30;2.13;;;6.20;99.90;;;;;;5095205;28;20043;-71
2021/12/18 05:42:38;;;;;;;6.40;1.55;;;6.10;99.90;;;;;;5095044;28;20036;-73
2021/12/18 05:45:05;;;;;;;9.27;1.90;;;6.20;99.90;;;;;;5094803;28;20036;-73
2021/12/18 05:47:31;;;;;;;17.88;2.65;;;6.20;99.90;;;;;;5095339;28;20036;-71
2021/12/18 05:49:56;;;;;;;10.43;2.17;;;6.20;99.90;;;;;;5078446;28;20040;-71
2021/12/18 05:52:23;;;;;;;13.00;2.17;;;6.20;99.90;;;;;;5128731;27;20032;-71
2021/12/18 05:54:49;;;;;;;12.52;1.90;;;6.20;99.90;;;;;;5078361;28;20040;-71
2021/12/18 05:57:15;;;;;;;12.80;2.08;;;6.20;99.90;;;;;;5094707;28;20101;-71
2021/12/18 05:59:41;;;;;;;11.60;2.17;;;6.20;99.90;;;;;;5095240;28;20378;-73
2021/12/18 06:02:07;;;;;;;18.10;2.80;;;6.20;99.90;;;;;;5095008;28;20122;-71
2021/12/18 06:04:32;;;;;;;20.60;2.33;;;6.20;99.90;;;;;;5078033;28;20131;-72
2021/12/18 06:07:04;;;;;;;11.07;2.08;;;6.20;99.90;;;;;;5128828;27;20039;-74
2021/12/18 06:09:36;;;;;;;20.80;2.65;;;6.20;99.90;;;;;;5094842;28;20046;-71
2021/12/18 06:12:02;;;;;;;12.48;2.33;;;6.20;99.90;;;;;;5128209;27;20428;-72
2021/12/18 06:14:29;;;;;;;15.00;2.38;;;6.20;99.90;;;;;;5094979;28;20032;-71
2021/12/18 06:16:55;;;;;;;19.85;2.88;;;6.20;99.90;;;;;;5128741;27;20478;-71
2021/12/18 06:19:20;;;;;;;13.55;2.40;;;6.20;99.90;;;;;;5094097;28;20557;-72
2021/12/18 06:21:47;;;;;;;16.48;2.90;;;6.20;99.90;;;;;;5128106;27;20052;-71
2021/12/18 06:24:13;;;;;;;10.82;2.42;;;6.20;99.90;;;;;;5094251;28;20101;-72
2021/12/18 06:26:38;;;;;;;13.45;2.33;;;6.20;99.90;;;;;;5094221;28;20382;-72
2021/12/18 06:29:04;;;;;;;15.23;3.05;;;6.20;99.90;;;;;;5094072;28;20051;-71
2021/12/18 06:31:31;;;;;;;12.13;2.22;;;6.20;99.90;;;;;;5128686;27;20474;-73
2021/12/18 06:33:57;;;;;;;18.05;2.42;;;6.20;99.90;;;;;;5094371;28;20150;-71
2021/12/18 06:36:22;;;;;;;18.50;2.55;;;6.20;99.90;;;;;;5077523;28;20131;-71
2021/12/18 06:38:48;;;;;;;11.23;2.60;;;6.30;99.90;;;;;;5093962;28;20474;-71
2021/12/18 06:41:14;;;;;;;32.30;3.47;;;6.20;99.90;;;;;;5093945;28;20355;-71
2021/12/18 06:43:39;;;;;;;17.02;3.53;;;6.30;99.90;;;;;;5076689;28;20473;-71
2021/12/18 06:46:06;;;;;;;21.88;3.20;;;6.30;99.90;;;;;;5093518;28;20043;-71
2021/12/18 06:48:32;;;;;;;22.13;3.05;;;6.20;99.90;;;;;;5093887;28;20050;-71
2021/12/18 06:50:58;;;;;;;17.23;3.22;;;6.30;99.90;;;;;;5094156;28;20386;-72
2021/12/18 06:53:24;;;;;;;10.70;2.80;;;6.30;99.90;;;;;;5076618;28;20475;-71
2021/12/18 06:55:50;;;;;;;13.55;2.90;;;6.30;99.90;;;;;;5093624;28;20040;-72
2021/12/18 06:58:15;;;;;;;15.93;2.70;;;6.30;99.90;;;;;;5128103;27;20144;-70
2021/12/18 07:00:44;;;;;;;20.13;3.25;;;6.30;99.90;;;;;;5077096;28;20106;-72
2021/12/18 07:03:11;;;;;;;20.13;3.08;;;6.30;99.90;;;;;;5127203;27;20094;-71
2021/12/18 07:05:36;;;;;;;12.05;2.45;;;6.30;99.90;;;;;;5093732;28;20044;-71
2021/12/18 07:08:02;;;;;;;12.18;2.50;;;6.30;99.90;;;;;;5076701;28;20046;-71
2021/12/18 07:10:30;;;;;;;11.07;2.53;;;6.30;99.90;;;;;;5127444;27;20036;-71
2021/12/18 07:12:56;;;;;;;14.45;3.00;;;6.30;99.90;;;;;;5093308;28;20055;-72
2021/12/18 07:15:21;;;;;;;16.67;3.38;;;6.30;99.90;;;;;;5093510;28;20035;-71
2021/12/18 07:17:47;;;;;;;20.75;4.20;;;6.30;99.90;;;;;;5093114;28;20090;-71
2021/12/18 07:20:13;;;;;;;18.65;4.03;;;6.30;99.90;;;;;;5093238;28;20391;-71
2021/12/18 07:22:38;;;;;;;22.00;4.80;;;6.30;99.90;;;;;;5075895;28;20044;-71
2021/12/18 07:25:05;;;;;;;24.70;5.15;;;6.30;99.90;;;;;;5093310;28;20131;-71
2021/12/18 07:27:30;;;;;;;19.75;4.60;;;6.20;99.90;;;;;;5093969;28;20067;-71
2021/12/18 07:29:56;;;;;;;21.05;5.35;;;6.30;99.90;;;;;;5127851;27;20079;-71
2021/12/18 07:32:22;;;;;;;20.13;5.10;;;6.30;99.90;;;;;;5076288;28;20047;-71
2021/12/18 07:34:47;;;;;;;21.92;5.63;;;6.30;99.90;;;;;;5093125;28;20039;-71
2021/12/18 07:37:13;;;;;;;17.92;4.55;;;6.30;99.90;;;;;;5093006;28;20041;-72
2021/12/18 07:39:39;;;;;;;20.25;4.45;;;6.30;99.90;;;;;;5092133;28;20819;-71
2021/12/18 07:42:05;;;;;;;17.02;4.90;;;6.30;99.90;;;;;;5127782;27;20044;-71
2021/12/18 07:44:30;;;;;;;21.95;5.53;;;6.30;99.90;;;;;;5093263;28;20040;-73
2021/12/18 07:46:56;;;;;;;17.20;5.47;;;6.30;99.90;;;;;;5109649;28;20097;-75
2021/12/18 07:49:21;;;;;;;36.50;8.73;;;6.30;99.90;;;;;;5126425;27;20044;-71
2021/12/18 07:51:47;;;;;;;27.95;8.82;;;6.30;99.90;;;;;;5092983;28;20044;-71
2021/12/18 07:54:13;;;;;;;33.08;11.15;;;6.30;99.90;;;;;;5092675;28;20048;-71
2021/12/18 07:56:38;;;;;;;29.25;9.98;;;6.40;99.90;;;;;;5093401;28;20036;-70
2021/12/18 07:59:04;;;;;;;30.38;9.95;;;6.30;99.90;;;;;;5092701;28;20058;-72
2021/12/18 08:01:30;;;;;;;23.05;8.77;;;6.40;99.90;;;;;;5092678;28;20044;-73
2021/12/18 08:03:56;;;;;;;26.83;9.07;;;6.40;99.90;;;;;;5126926;27;20044;-73
2021/12/18 08:06:21;;;;;;;26.95;8.48;;;6.40;99.90;;;;;;5126823;27;20083;-71
2021/12/18 08:08:48;;;;;;;23.48;8.05;;;6.50;99.90;;;;;;5126526;27;20055;-71
2021/12/18 08:11:14;;;;;;;29.33;6.80;;;6.40;99.90;;;;;;5092472;28;20062;-72
2021/12/18 08:13:40;;;;;;;25.58;7.05;;;6.40;99.90;;;;;;5092348;28;20052;-74
2021/12/18 08:16:06;;;;;;;26.90;7.25;;;6.40;99.90;;;;;;5092496;28;20044;-73
2021/12/18 08:18:32;;;;;;;29.50;7.00;;;6.40;99.90;;;;;;5091823;28;20105;-71
2021/12/18 08:20:58;;;;;;;27.92;5.90;;;6.40;99.90;;;;;;5092545;28;20036;-71
2021/12/18 08:23:23;;;;;;;19.38;5.47;;;6.40;99.90;;;;;;5126224;28;20082;-72
2021/12/18 08:25:50;;;;;;;19.10;5.47;;;6.40;99.90;;;;;;5093093;28;20549;-73
2021/12/18 08:28:15;;;;;;;28.58;5.40;;;6.50;99.90;;;;;;5091956;28;20075;-71
2021/12/18 08:30:41;;;;;;;25.33;4.85;;;6.50;99.90;;;;;;5084126;28;20394;-72
2021/12/18 08:33:07;;;;;;;23.23;4.97;;;6.50;99.90;;;;;;5075656;28;20473;-71
2021/12/18 08:35:34;;;;;;;22.73;5.30;;;6.50;99.90;;;;;;5092395;28;20370;-71
2021/12/18 08:38:00;;;;;;;38.22;5.88;;;6.50;99.90;;;;;;5091532;28;20040;-71
2021/12/18 08:40:28;;;;;;;26.05;5.07;;;6.50;99.90;;;;;;5093107;28;20138;-72
2021/12/18 08:42:53;;;;;;;18.48;4.43;;;6.50;99.90;;;;;;5092476;28;20040;-71
2021/12/18 08:45:19;;;;;;;25.80;4.65;;;6.60;99.90;;;;;;5126360;27;20040;-74
2021/12/18 08:47:46;;;;;;;24.15;5.43;;;6.50;99.90;;;;;;5091778;28;20047;-71
2021/12/18 08:50:15;;;;;;;25.45;5.35;;;6.60;99.90;;;;;;5075121;28;20428;-73
2021/12/18 08:52:41;;;;;;;18.00;4.60;;;6.60;99.90;;;;;;5091915;28;20052;-71
2021/12/18 08:55:08;;;;;;;30.70;5.40;;;6.60;99.90;;;;;;5092257;28;20040;-72
2021/12/18 08:57:33;;;;;;;30.15;5.38;;;6.60;99.90;;;;;;5091201;28;20070;-73
2021/12/18 08:59:59;;;;;;;22.95;5.45;;;6.70;99.90;;;;;;5126449;27;20039;-73
2021/12/18 09:02:24;;;;;;;32.50;7.22;;;6.70;99.90;;;;;;5130194;27;20112;-71
2021/12/18 09:04:51;;;;;;;26.05;6.60;;;6.70;99.90;;;;;;5129937;27;20051;-71
2021/12/18 09:07:17;;;;;;;23.95;6.97;;;6.70;99.90;;;;;;5129547;27;20509;-71
2021/12/18 09:09:43;;;;;;;19.30;6.32;;;6.80;99.90;;;;;;5095390;28;20108;-73
2021/12/18 09:12:10;;;;;;;28.08;7.85;;;6.80;99.90;;;;;;5096399;28;20083;-71
2021/12/18 09:14:37;;;;;;;32.10;7.57;;;6.80;99.90;;;;;;5095646;28;20105;-71
2021/12/18 09:17:03;;;;;;;32.40;9.60;;;6.80;99.90;;;;;;5095066;28;20032;-75
2021/12/18 09:19:29;;;;;;;29.63;7.93;;;6.80;99.90;;;;;;5095371;28;20040;-71
2021/12/18 09:21:55;;;;;;;29.23;7.97;;;6.90;99.90;;;;;;5095667;28;20479;-71
2021/12/18 09:24:21;;;;;;;31.23;7.40;;;7.00;99.90;;;;;;5079066;28;20036;-71
2021/12/18 09:26:48;;;;;;;31.60;7.32;;;7.00;99.90;;;;;;5095663;28;20044;-72
2021/12/18 09:29:14;;;;;;;29.95;6.90;;;7.00;99.90;;;;;;5095722;28;20047;-74
2021/12/18 09:31:39;;;;;;;28.08;7.00;;;7.00;99.90;;;;;;5078674;28;20040;-71
2021/12/18 09:34:05;;;;;;;26.17;7.00;;;7.00;99.90;;;;;;5129048;27;20051;-72
2021/12/18 09:36:31;;;;;;;26.08;7.57;;;7.00;99.90;;;;;;5094504;28;20043;-71
2021/12/18 09:38:57;;;;;;;28.02;7.13;;;7.10;99.90;;;;;;5094224;28;20085;-72
2021/12/18 09:41:24;;;;;;;27.52;7.07;;;7.10;99.90;;;;;;5076762;28;20130;-72
2021/12/18 09:43:50;;;;;;;26.38;6.97;;;7.10;99.90;;;;;;5092777;28;20036;-71
2021/12/18 09:46:17;;;;;;;31.95;7.72;;;7.20;99.90;;;;;;5093850;28;20036;-73
2021/12/18 09:48:44;;;;;;;36.35;8.68;;;7.20;99.90;;;;;;5094249;28;20517;-72
2021/12/18 09:51:21;;;;;;;26.00;7.97;;;7.20;99.90;;;;;;5093495;28;20028;-70
2021/12/18 09:53:46;;;;;;;36.05;8.07;;;7.20;99.90;;;;;;5093928;28;20048;-72
2021/12/18 09:56:12;;;;;;;28.58;7.85;;;7.30;99.90;;;;;;5077506;28;20141;-73
2021/12/18 09:58:38;;;;;;;25.38;7.32;;;7.30;99.90;;;;;;5128107;27;20089;-72
2021/12/18 10:01:04;;;;;;;29.52;7.53;;;7.30;99.90;;;;;;5128120;27;20089;-71
2021/12/18 10:03:51;;;;;;;30.60;7.68;;;7.30;99.90;;;;;;5128323;27;20044;-72
2021/12/18 10:06:44;;;;;;;27.15;7.10;;;7.40;99.90;;;;;;5107826;28;20161;-71
2021/12/18 10:09:16;;;;;;;30.42;7.88;;;7.30;99.90;;;;;;5073465;28;20059;-71
2021/12/18 10:11:48;;;;;;;27.42;7.47;;;7.40;99.90;;;;;;5072969;28;20498;-71
2021/12/18 10:14:15;;;;;;;30.80;7.20;;;7.40;99.90;;;;;;5118090;27;20039;-71
2021/12/18 10:16:50;;;;;;;36.88;8.38;;;7.40;99.90;;;;;;5092240;28;20052;-71
2021/12/18 10:19:30;;;;;;;37.80;7.82;;;7.50;99.90;;;;;;5093223;28;20119;-71
2021/12/18 10:22:02;;;;;;;29.38;8.18;;;7.50;99.90;;;;;;5093464;28;20065;-70
2021/12/18 10:24:29;;;;;;;20.77;6.60;;;7.50;99.90;;;;;;5093447;28;20063;-73
2021/12/18 10:26:55;;;;;;;20.02;6.50;;;7.60;99.90;;;;;;5093641;28;20483;-71
2021/12/18 10:29:24;;;;;;;18.98;5.55;;;7.60;99.90;;;;;;5093643;28;20119;-71
2021/12/18 10:31:50;;;;;;;20.17;5.47;;;7.70;99.90;;;;;;5093520;28;20154;-73
2021/12/18 10:34:24;;;;;;;19.48;5.10;;;7.70;99.90;;;;;;5092977;28;20090;-70
2021/12/18 10:37:15;;;;;;;11.25;4.28;;;7.80;99.90;;;;;;5093084;28;20032;-72
2021/12/18 10:39:53;;;;;;;13.70;3.40;;;7.80;99.90;;;;;;5127114;27;20036;-70
2021/12/18 10:42:31;;;;;;;15.40;4.53;;;7.90;99.90;;;;;;5093254;28;20478;-70
2021/12/18 10:45:02;;;;;;;9.23;2.97;;;7.90;99.90;;;;;;5126445;27;20052;-70
2021/12/18 10:47:46;;;;;;;11.32;3.40;;;8.00;99.90;;;;;;5093214;28;20152;-71
2021/12/18 10:50:51;;;;;;;10.82;3.45;;;8.10;99.90;;;;;;5092641;28;20105;-72
2021/12/18 10:53:25;;;;;;;10.18;3.20;;;8.10;99.90;;;;;;5081961;28;20055;-70
2021/12/18 10:55:57;;;;;;;13.15;3.60;;;8.10;99.90;;;;;;5093158;28;20048;-72
2021/12/18 10:58:33;;;;;;;9.52;2.85;;;8.10;99.90;;;;;;5092812;28;20050;-72
2021/12/18 11:01:02;;;;;;;17.48;3.22;;;8.20;99.90;;;;;;5092324;28;20173;-71
2021/12/18 11:03:35;;;;;;;9.13;3.28;;;8.20;99.90;;;;;;5092648;28;20509;-71
2021/12/18 11:06:13;;;;;;;8.93;3.47;;;8.20;99.90;;;;;;5092924;28;20047;-72
2021/12/18 11:08:52;;;;;;;8.05;3.40;;;8.30;99.90;;;;;;5126981;27;20094;-70
2021/12/18 11:14:21;;;;;;;9.05;2.70;;;8.30;99.90;;;;;;5092181;28;20107;-71
2021/12/18 11:16:59;;;;;;;10.55;3.17;;;8.40;99.90;;;;;;5093564;28;20056;-69
2021/12/18 11:19:27;;;;;;;13.70;3.08;;;8.40;99.90;;;;;;5075233;28;20093;-71
2021/12/18 11:21:59;;;;;;;10.00;3.70;;;8.40;99.90;;;;;;5092107;28;20504;-71
2021/12/18 11:24:46;;;;;;;9.98;3.15;;;8.40;99.90;;;;;;5091784;28;20043;-72
2021/12/18 11:27:16;;;;;;;14.52;3.40;;;8.40;99.90;;;;;;5092698;28;20580;-70
2021/12/18 11:30:06;;;;;;;;;;;8.40;99.90;;;;;;5092999;28;20048;-70
2021/12/18 11:32:44;;;;;;;14.02;3.30;;;8.40;99.90;;;;;;5072128;28;19999;-72
2021/12/18 11:35:20;;;;;;;9.65;3.33;;;8.50;99.90;;;;;;5072801;28;20041;-70
2021/12/18 11:38:08;;;;;;;11.15;3.30;;;8.50;99.90;;;;;;5072111;28;20067;-71
2021/12/18 11:40:36;;;;;;;10.45;3.15;;;8.50;99.90;;;;;;5076926;28;20073;-70
2021/12/18 11:43:30;;;;;;;11.68;3.28;;;8.50;99.90;;;;;;5092161;28;20482;-71
2021/12/18 11:45:57;;;;;;;7.55;3.70;;;8.50;99.90;;;;;;5072095;28;20051;-71
2021/12/18 11:48:23;;;;;;;8.93;3.53;;;8.50;99.90;;;;;;5071998;28;20123;-71
2021/12/18 11:50:49;;;;;;;6.65;3.35;;;8.60;99.90;;;;;;5062096;28;20173;-71
2021/12/18 11:53:19;;;;;;;10.25;3.53;;;8.60;99.90;;;;;;5091933;28;20348;-71
2021/12/18 11:55:51;;;;;;;10.85;3.90;;;8.60;99.90;;;;;;5091668;28;20048;-72
2021/12/18 11:58:18;;;;;;;8.73;3.95;;;8.60;99.90;;;;;;5091646;28;20444;-71
2021/12/18 12:00:51;;;;;;;10.85;4.20;;;8.60;99.90;;;;;;5090859;28;20359;-70
2021/12/18 12:03:27;;;;;;;8.80;4.15;;;8.60;99.90;;;;;;5090838;28;20043;-72
2021/12/18 12:05:54;;;;;;;10.85;4.00;;;8.60;99.90;;;;;;5091626;28;20036;-71
2021/12/18 12:08:22;;;;;;;10.82;4.93;;;8.60;99.90;;;;;;5091526;28;20377;-71
2021/12/18 12:11:15;;;;;;;11.27;5.32;;;8.60;99.90;;;;;;5091799;28;20040;-70
2021/12/18 12:14:06;;;;;;;10.77;5.05;;;8.70;99.90;;;;;;5088166;28;20066;-71
2021/12/18 12:16:44;;;;;;;11.32;5.15;;;8.60;99.90;;;;;;5089870;28;20393;-72
2021/12/18 12:19:20;;;;;;;11.63;5.25;;;8.70;99.90;;;;;;5090563;28;20055;-71
2021/12/18 12:21:48;;;;;;;14.27;5.82;;;8.70;99.90;;;;;;5091058;28;20039;-71
2021/12/18 12:24:16;;;;;;;11.95;5.93;;;8.70;99.90;;;;;;5090471;28;20043;-71
2021/12/18 12:26:42;;;;;;;11.77;5.38;;;8.70;99.90;;;;;;5090939;28;20071;-71
2021/12/18 12:29:09;;;;;;;11.82;4.90;;;8.70;99.90;;;;;;5091307;28;20082;-72
2021/12/18 12:31:36;;;;;;;11.88;5.38;;;8.70;99.90;;;;;;5090382;28;20060;-72
2021/12/18 12:34:33;;;;;;;17.05;9.13;;;8.80;99.90;;;;;;5091657;28;20040;-71
2021/12/18 12:37:21;;;;;;;13.00;5.38;;;8.70;99.90;;;;;;5094566;28;20036;-73
2021/12/18 12:40:20;;;;;;;17.33;11.32;;;8.70;99.90;;;;;;5093416;28;20048;-73
2021/12/18 12:43:20;;;;;;;18.20;11.20;;;8.70;99.90;;;;;;5095016;28;20078;-71
2021/12/18 12:45:49;;;;;;;26.08;15.18;;;8.70;99.90;;;;;;5082746;28;20071;-71
2021/12/18 12:48:16;;;;;;;19.08;8.18;;;8.70;99.90;;;;;;5094838;28;20052;-72
2021/12/18 12:50:43;;;;;;;18.13;9.70;;;8.70;99.90;;;;;;5095229;28;20478;-72
2021/12/18 12:53:11;;;;;;;6.57;3.85;;;8.80;99.90;;;;;;5094744;28;20104;-73
2021/12/18 12:55:49;;;;;;;11.10;5.25;;;8.80;99.90;;;;;;5095119;28;20096;-72
2021/12/18 12:58:18;;;;;;;10.82;5.88;;;8.80;99.90;;;;;;5094511;28;20084;-72
2021/12/18 13:00:47;;;;;;;12.27;5.80;;;8.80;99.90;;;;;;5094742;28;20058;-71
2021/12/18 13:03:15;;;;;;;15.73;6.75;;;8.80;99.90;;;;;;5095184;28;20119;-71
2021/12/18 13:06:09;;;;;;;11.18;5.10;;;8.70;99.90;;;;;;5094895;28;20081;-71
2021/12/18 13:08:39;;;;;;;13.85;6.78;;;8.70;99.90;;;;;;5090693;28;20047;-72
2021/12/18 13:11:05;;;;;;;13.82;6.60;;;8.80;99.90;;;;;;5095007;28;20062;-71
2021/12/18 13:13:34;;;;;;;15.00;5.63;;;8.70;99.90;;;;;;5094095;28;20119;-70
2021/12/18 13:16:09;;;;;;;11.15;5.28;;;8.70;99.90;;;;;;5094562;28;20089;-73
2021/12/18 13:18:49;;;;;;;13.43;6.95;;;8.70;99.90;;;;;;5093730;28;20078;-73
2021/12/18 13:21:32;;;;;;;11.63;5.22;;;8.70;99.90;;;;;;5128667;27;20500;-72
2021/12/18 13:24:09;;;;;;;21.30;10.35;;;8.80;99.90;;;;;;5079083;28;20039;-72
2021/12/18 13:26:38;;;;;;;29.90;14.32;;;8.80;99.90;;;;;;5085616;28;20044;-71
2021/12/18 13:29:15;;;;;;;46.05;23.95;;;8.80;99.90;;;;;;5093433;28;20485;-71
2021/12/18 13:31:49;;;;;;;16.73;6.85;;;8.70;99.90;;;;;;5110804;28;20043;-72
2021/12/18 13:34:18;;;;;;;12.95;5.93;;;8.80;99.90;;;;;;5094391;28;20040;-72
2021/12/18 13:36:48;;;;;;;11.70;4.93;;;8.80;99.90;;;;;;5094306;28;20082;-72
2021/12/18 13:39:16;;;;;;;10.23;5.13;;;8.80;99.90;;;;;;5094649;28;20043;-71
2021/12/18 13:42:04;;;;;;;11.60;5.35;;;8.70;99.90;;;;;;5089162;28;20050;-71
2021/12/18 13:44:53;;;;;;;12.43;4.85;;;8.70;99.90;;;;;;5094226;28;20405;-71
2021/12/18 13:47:22;;;;;;;14.98;5.57;;;8.70;99.90;;;;;;5093728;28;20036;-71
2021/12/18 13:49:48;;;;;;;13.43;5.97;;;8.70;99.90;;;;;;5128511;27;20055;-71